createdAt,value
2019-01-09T00:01:40.927Z,11.28
2019-01-09T00:04:12.283Z,8.70
2019-01-09T00:06:52.894Z,9.00
2019-01-09T00:09:25.782Z,8.90
2019-01-09T00:12:09.438Z,9.00
2019-01-09T00:14:58.004Z,7.80
2019-01-09T00:17:50.912Z,9.23
2019-01-09T00:20:23.742Z,8.00
2019-01-09T00:22:54.940Z,7.90
2019-01-09T00:25:26.042Z,8.00
2019-01-09T00:27:58.085Z,9.70
2019-01-09T00:30:29.478Z,8.10
2019-01-09T00:33:09.024Z,7.60
2019-01-09T00:35:40.083Z,7.83
2019-01-09T00:38:20.444Z,7.13
2019-01-09T00:40:55.411Z,8.07
2019-01-09T00:43:26.698Z,8.07
2019-01-09T00:46:01.415Z,7.93
2019-01-09T00:48:33.605Z,7.20
2019-01-09T00:51:22.284Z,7.67
2019-01-09T00:53:53.281Z,9.40
2019-01-09T00:56:25.388Z,8.53
2019-01-09T00:58:56.586Z,7.53
2019-01-09T01:01:27.971Z,8.33
2019-01-09T01:04:33.443Z,7.20
2019-01-09T01:07:41.231Z,5.90
2019-01-09T01:11:07.440Z,6.43
2019-01-09T01:13:56.662Z,6.90
2019-01-09T01:17:04.486Z,6.83
2019-01-09T01:20:22.850Z,6.90
2019-01-09T01:23:30.755Z,6.97
2019-01-09T01:27:04.571Z,6.60
2019-01-09T01:30:22.112Z,6.10
2019-01-09T01:33:23.663Z,6.60
2019-01-09T01:36:44.946Z,6.73
2019-01-09T01:39:32.739Z,6.37
2019-01-09T01:42:46.432Z,6.67
2019-01-09T01:46:07.081Z,6.25
2019-01-09T01:49:18.089Z,7.23
2019-01-09T01:52:29.960Z,6.53
2019-01-09T01:59:01.654Z,5.83
2019-01-09T02:02:19.129Z,5.87
2019-01-09T02:05:13.716Z,6.00
2019-01-09T02:08:22.689Z,5.63
2019-01-09T02:11:42.372Z,7.03
2019-01-09T02:14:52.400Z,6.20
2019-01-09T02:17:52.264Z,5.97
2019-01-09T02:21:13.924Z,6.10
2019-01-09T02:24:37.157Z,5.90
2019-01-09T02:27:57.894Z,7.93
2019-01-09T02:31:15.972Z,6.87
2019-01-09T02:33:47.056Z,5.50
2019-01-09T02:36:17.769Z,5.87
2019-01-09T02:38:48.834Z,5.80
2019-01-09T02:41:19.476Z,6.17
2019-01-09T02:43:50.782Z,5.97
2019-01-09T02:46:21.500Z,5.83
2019-01-09T02:49:08.799Z,5.47
2019-01-09T02:51:39.778Z,6.00
2019-01-09T02:54:11.222Z,5.07
2019-01-09T02:56:42.309Z,4.80
2019-01-09T02:59:19.004Z,5.07
2019-01-09T03:01:49.944Z,5.80
2019-01-09T03:04:20.771Z,6.70
2019-01-09T03:06:55.968Z,6.30
2019-01-09T03:09:27.149Z,6.70
2019-01-09T03:11:58.208Z,7.00
2019-01-09T03:14:29.633Z,6.57
2019-01-09T03:17:00.773Z,6.80
2019-01-09T03:19:31.919Z,6.47
2019-01-09T03:22:03.168Z,6.63
2019-01-09T03:24:34.373Z,6.83
2019-01-09T03:27:05.545Z,6.60
2019-01-09T03:29:38.048Z,7.30
2019-01-09T03:32:09.422Z,6.97
2019-01-09T03:34:40.654Z,6.63
2019-01-09T03:37:12.259Z,6.80
2019-01-09T03:39:43.311Z,6.47
2019-01-09T03:42:14.421Z,6.40
2019-01-09T03:44:49.044Z,6.00
2019-01-09T03:47:19.804Z,6.20
2019-01-09T03:49:51.263Z,6.70
2019-01-09T03:52:22.426Z,7.00
2019-01-09T03:55:06.649Z,6.07
2019-01-09T03:57:37.660Z,6.40
2019-01-09T04:00:11.939Z,6.20
2019-01-09T04:02:43.158Z,6.93
2019-01-09T04:05:26.966Z,6.50
2019-01-09T04:07:58.388Z,6.00
2019-01-09T04:10:29.515Z,6.78
2019-01-09T04:13:00.574Z,6.10
2019-01-09T04:15:32.192Z,5.10
2019-01-09T04:18:03.730Z,5.57
2019-01-09T04:20:34.878Z,4.90
2019-01-09T04:23:06.105Z,4.80
2019-01-09T04:25:37.541Z,4.80
2019-01-09T04:28:08.607Z,4.93
2019-01-09T04:30:42.554Z,4.47
2019-01-09T04:33:25.515Z,5.17
2019-01-09T04:36:01.405Z,4.70
2019-01-09T04:38:32.598Z,4.20
2019-01-09T04:41:03.861Z,5.30
2019-01-09T04:43:35.290Z,4.73
2019-01-09T04:46:06.454Z,5.30
2019-01-09T04:48:37.577Z,5.20
2019-01-09T04:51:09.200Z,4.60
2019-01-09T04:53:47.285Z,5.40
2019-01-09T04:56:18.197Z,4.73
2019-01-09T04:58:50.627Z,5.27
2019-01-09T05:01:21.559Z,6.20
2019-01-09T05:03:52.445Z,5.90
2019-01-09T05:06:24.669Z,5.40
2019-01-09T05:08:57.546Z,5.80
2019-01-09T05:11:31.599Z,5.60
2019-01-09T05:14:07.967Z,5.60
2019-01-09T05:16:50.721Z,5.53
2019-01-09T05:19:21.955Z,5.93
2019-01-09T05:21:53.285Z,5.30
2019-01-09T05:24:24.593Z,6.50
2019-01-09T05:26:55.993Z,7.20
2019-01-09T05:29:27.101Z,5.87
2019-01-09T05:31:58.428Z,6.00
2019-01-09T05:34:30.218Z,5.43
2019-01-09T05:37:09.198Z,5.40
2019-01-09T05:39:39.606Z,5.40
2019-01-09T05:42:07.588Z,5.70
2019-01-09T05:44:38.829Z,5.87
2019-01-09T05:47:10.204Z,6.53
2019-01-09T05:49:42.549Z,6.13
2019-01-09T05:52:13.999Z,5.77
2019-01-09T05:54:50.627Z,5.23
2019-01-09T05:57:21.322Z,5.70
2019-01-09T05:59:52.616Z,5.20
2019-01-09T06:02:24.225Z,5.50
2019-01-09T06:04:56.235Z,5.40
2019-01-09T06:07:28.207Z,5.30
2019-01-09T06:10:00.099Z,5.67
2019-01-09T06:12:34.051Z,6.57
2019-01-09T06:15:05.807Z,6.20
2019-01-09T06:17:36.930Z,8.70
2019-01-09T06:20:11.361Z,4.80
2019-01-09T06:22:42.554Z,5.97
2019-01-09T06:25:13.704Z,4.27
2019-01-09T06:27:44.900Z,5.00
2019-01-09T06:30:16.292Z,5.30
2019-01-09T06:32:47.581Z,4.73
2019-01-09T06:35:18.292Z,6.03
2019-01-09T06:37:50.206Z,7.10
2019-01-09T06:40:21.326Z,6.27
2019-01-09T06:42:52.826Z,5.37
2019-01-09T06:45:23.825Z,6.33
2019-01-09T06:47:58.893Z,5.60
2019-01-09T06:50:32.466Z,7.47
2019-01-09T06:53:04.014Z,6.60
2019-01-09T06:55:36.221Z,3.90
2019-01-09T06:58:07.364Z,5.10
2019-01-09T07:00:43.226Z,5.77
2019-01-09T07:03:14.593Z,5.00
2019-01-09T07:05:47.833Z,4.90
2019-01-09T07:08:19.438Z,6.07
2019-01-09T07:10:50.425Z,5.63
2019-01-09T07:13:21.246Z,5.30
2019-01-09T07:15:52.304Z,6.30
2019-01-09T07:18:24.474Z,5.80
2019-01-09T07:20:56.047Z,6.70
2019-01-09T07:23:37.744Z,7.03
2019-01-09T07:26:09.425Z,8.87
2019-01-09T07:28:41.847Z,7.80
2019-01-09T07:31:13.202Z,6.20
2019-01-09T07:33:44.480Z,5.87
2019-01-09T07:36:15.353Z,5.80
2019-01-09T07:38:46.585Z,4.97
2019-01-09T07:41:17.409Z,5.83
2019-01-09T07:43:54.804Z,7.10
2019-01-09T07:46:25.944Z,8.40
2019-01-09T07:48:57.399Z,7.00
2019-01-09T07:51:28.518Z,6.10
2019-01-09T07:53:59.809Z,5.53
2019-01-09T07:56:31.854Z,5.97
2019-01-09T07:59:03.678Z,6.60
2019-01-09T08:01:34.789Z,5.80
2019-01-09T08:04:06.199Z,5.90
2019-01-09T08:06:37.448Z,5.70
2019-01-09T08:09:08.971Z,6.60
2019-01-09T08:11:40.072Z,6.80
2019-01-09T08:14:11.528Z,7.07
2019-01-09T08:16:59.763Z,6.70
2019-01-09T08:19:30.904Z,6.80
2019-01-09T08:22:04.115Z,6.97
2019-01-09T08:24:37.638Z,6.90
2019-01-09T08:27:08.737Z,7.47
2019-01-09T08:29:40.116Z,6.87
2019-01-09T08:32:13.899Z,5.97
2019-01-09T08:34:45.061Z,7.03
2019-01-09T08:37:15.866Z,6.67
2019-01-09T08:39:47.134Z,6.00
2019-01-09T08:42:18.051Z,6.93
2019-01-09T08:44:49.371Z,6.60
2019-01-09T08:47:33.243Z,7.30
2019-01-09T08:50:04.789Z,6.57
2019-01-09T08:52:36.084Z,8.20
2019-01-09T08:55:08.611Z,6.37
2019-01-09T08:57:39.746Z,6.23
2019-01-09T09:00:12.613Z,7.60
2019-01-09T09:02:43.696Z,7.03
2019-01-09T09:05:15.542Z,7.73
2019-01-09T09:07:48.767Z,7.77
2019-01-09T09:10:19.876Z,6.80
2019-01-09T09:12:51.023Z,8.10
2019-01-09T09:15:31.679Z,7.40
2019-01-09T09:18:02.860Z,7.50
2019-01-09T09:20:35.027Z,6.60
2019-01-09T09:23:07.935Z,8.10
2019-01-09T09:25:39.435Z,7.40
2019-01-09T09:28:10.798Z,6.93
2019-01-09T09:31:00.867Z,7.57
2019-01-09T09:33:28.947Z,7.37
2019-01-09T09:36:17.166Z,8.10
2019-01-09T09:38:48.751Z,8.77
2019-01-09T09:41:20.497Z,7.83
2019-01-09T09:43:52.063Z,8.73
2019-01-09T09:46:24.464Z,8.00
2019-01-09T09:48:56.318Z,5.77
2019-01-09T09:51:34.415Z,9.00
2019-01-09T09:54:06.087Z,5.37
2019-01-09T09:56:37.646Z,7.83
2019-01-09T09:59:09.277Z,9.27
2019-01-09T10:01:41.076Z,7.50
2019-01-09T10:04:12.448Z,8.73
2019-01-09T10:06:45.250Z,9.40
2019-01-09T10:09:16.223Z,10.10
2019-01-09T10:11:47.540Z,8.33
2019-01-09T10:14:20.019Z,8.63
2019-01-09T10:16:51.532Z,8.40
2019-01-09T10:19:22.619Z,8.30
2019-01-09T10:21:54.239Z,7.33
2019-01-09T10:24:25.382Z,8.60
2019-01-09T10:26:56.608Z,8.07
2019-01-09T10:29:29.557Z,8.13
2019-01-09T10:32:02.149Z,6.87
2019-01-09T10:34:36.199Z,8.30
2019-01-09T10:37:07.713Z,6.70
2019-01-09T10:39:39.775Z,7.90
2019-01-09T10:42:11.100Z,6.23
2019-01-09T10:44:50.302Z,8.47
2019-01-09T10:47:21.444Z,15.80
2019-01-09T10:49:53.054Z,9.90
2019-01-09T10:52:23.920Z,12.60
2019-01-09T10:54:55.336Z,6.67
2019-01-09T10:57:26.836Z,5.97
2019-01-09T10:59:58.129Z,6.77
2019-01-09T11:02:29.655Z,5.87
2019-01-09T11:05:00.937Z,8.50
2019-01-09T11:07:32.420Z,9.67
2019-01-09T11:10:04.137Z,7.17
2019-01-09T11:12:35.559Z,5.37
2019-01-09T11:15:07.689Z,4.50
2019-01-09T11:17:39.055Z,5.10
2019-01-09T11:20:20.926Z,5.93
2019-01-09T11:22:52.362Z,4.70
2019-01-09T11:25:30.011Z,3.47
2019-01-09T11:28:01.377Z,4.33
2019-01-09T11:30:32.510Z,4.30
2019-01-09T11:33:04.414Z,4.93
2019-01-09T11:35:37.028Z,6.40
2019-01-09T11:38:07.994Z,4.73
2019-01-09T11:40:42.267Z,4.63
2019-01-09T11:43:14.779Z,6.67
2019-01-09T11:45:46.127Z,7.30
2019-01-09T11:48:17.137Z,5.43
2019-01-09T11:50:48.443Z,4.87
2019-01-09T11:53:19.498Z,10.00
2019-01-09T11:55:50.802Z,5.27
2019-01-09T11:58:21.994Z,6.20
2019-01-09T12:00:53.455Z,5.30
2019-01-09T12:03:25.061Z,6.10
2019-01-09T12:05:58.036Z,5.37
2019-01-09T12:08:29.208Z,4.40
2019-01-09T12:11:00.746Z,5.70
2019-01-09T12:13:32.066Z,4.17
2019-01-09T12:16:11.941Z,5.83
2019-01-09T12:18:43.375Z,5.93
2019-01-09T12:21:16.761Z,5.07
2019-01-09T12:23:56.002Z,4.10
2019-01-09T12:26:26.743Z,4.50
2019-01-09T12:28:58.074Z,4.20
2019-01-09T12:31:29.141Z,4.90
2019-01-09T12:34:00.558Z,4.97
2019-01-09T12:36:33.911Z,4.83
2019-01-09T12:39:15.444Z,5.73
2019-01-09T12:41:58.353Z,5.67
2019-01-09T12:44:35.595Z,5.90
2019-01-09T12:47:15.595Z,5.37
2019-01-09T12:49:47.011Z,5.93
2019-01-09T12:52:18.289Z,6.70
2019-01-09T12:54:52.845Z,5.47
2019-01-09T12:57:26.911Z,6.63
2019-01-09T12:59:59.980Z,8.20
2019-01-09T13:02:31.475Z,5.87
2019-01-09T13:05:02.837Z,3.63
2019-01-09T13:07:34.325Z,8.20
2019-01-09T13:10:06.901Z,5.07
2019-01-09T13:12:38.329Z,5.73
2019-01-09T13:15:09.830Z,4.63
2019-01-09T13:17:53.358Z,3.83
2019-01-09T13:20:25.860Z,4.50
2019-01-09T13:22:56.974Z,4.40
2019-01-09T13:25:28.353Z,4.20
2019-01-09T13:27:59.566Z,5.00
2019-01-09T13:30:30.855Z,4.50
2019-01-09T13:33:01.915Z,5.50
2019-01-09T13:35:39.211Z,3.87
2019-01-09T13:38:10.804Z,5.57
2019-01-09T13:40:42.310Z,9.30
2019-01-09T13:43:14.151Z,4.80
2019-01-09T13:45:45.545Z,3.90
2019-01-09T13:48:16.521Z,3.20
2019-01-09T13:50:49.325Z,5.67
2019-01-09T13:53:21.268Z,3.87
2019-01-09T13:55:53.026Z,4.87
2019-01-09T13:58:25.053Z,5.37
2019-01-09T14:00:56.539Z,4.50
2019-01-09T14:03:27.713Z,4.10
2019-01-09T14:05:59.517Z,4.67
2019-01-09T14:08:31.991Z,5.77
2019-01-09T14:11:04.463Z,4.70
2019-01-09T14:13:35.608Z,5.37
2019-01-09T14:16:07.225Z,5.80
2019-01-09T14:18:38.527Z,3.83
2019-01-09T14:21:09.787Z,5.60
2019-01-09T14:23:59.908Z,4.97
2019-01-09T14:26:31.387Z,5.30
2019-01-09T14:29:02.882Z,4.97
2019-01-09T14:31:42.008Z,4.70
2019-01-09T14:34:10.353Z,4.00
2019-01-09T14:36:41.539Z,5.27
2019-01-09T14:39:13.028Z,5.50
2019-01-09T14:41:44.702Z,4.70
2019-01-09T14:44:20.845Z,4.53
2019-01-09T14:46:52.643Z,5.17
2019-01-09T14:49:23.475Z,4.10
2019-01-09T14:51:54.717Z,4.47
2019-01-09T14:54:25.720Z,5.23
2019-01-09T14:56:57.175Z,8.60
2019-01-09T14:59:28.053Z,5.13
2019-01-09T15:02:10.298Z,9.57
2019-01-09T15:04:41.728Z,12.30
2019-01-09T15:07:15.421Z,11.97
2019-01-09T15:09:47.165Z,13.73
2019-01-09T15:12:18.191Z,13.93
2019-01-09T15:14:54.511Z,12.50
2019-01-09T15:17:25.891Z,13.77
2019-01-09T15:19:57.345Z,14.20
2019-01-09T15:22:28.949Z,12.63
2019-01-09T15:25:00.481Z,14.20
2019-01-09T15:27:31.603Z,13.33
2019-01-09T15:30:03.160Z,12.73
2019-01-09T15:32:35.638Z,12.40
2019-01-09T15:35:14.445Z,12.37
2019-01-09T15:37:46.523Z,12.43
2019-01-09T15:40:22.809Z,11.97
2019-01-09T15:42:55.119Z,9.80
2019-01-09T15:45:26.293Z,10.17
2019-01-09T15:47:57.569Z,9.00
2019-01-09T15:50:29.112Z,9.50
2019-01-09T15:53:00.336Z,10.40
2019-01-09T15:55:31.768Z,9.57
2019-01-09T15:58:07.326Z,6.77
2019-01-09T16:00:41.619Z,6.40
2019-01-09T16:03:13.630Z,7.97
2019-01-09T16:05:45.828Z,9.40
2019-01-09T16:08:17.919Z,6.83
2019-01-09T16:10:48.893Z,9.73
2019-01-09T16:13:19.731Z,7.43
2019-01-09T16:16:07.421Z,6.57
2019-01-09T16:18:41.453Z,7.10
2019-01-09T16:21:17.682Z,6.87
2019-01-09T16:23:49.282Z,21.63
2019-01-09T16:26:20.038Z,12.33
2019-01-09T16:28:51.889Z,12.27
2019-01-09T16:31:29.122Z,6.77
2019-01-09T16:34:00.579Z,7.83
2019-01-09T16:36:32.609Z,6.50
2019-01-09T16:39:07.844Z,6.90
2019-01-09T16:41:39.173Z,8.00
2019-01-09T16:44:11.533Z,9.10
2019-01-09T16:46:42.728Z,11.50
2019-01-09T16:49:13.891Z,9.83
2019-01-09T16:51:45.794Z,6.63
2019-01-09T16:54:17.134Z,5.33
2019-01-09T16:56:48.390Z,5.40
2019-01-09T16:59:20.285Z,8.10
2019-01-09T17:01:51.508Z,7.03
2019-01-09T17:04:23.650Z,6.47
2019-01-09T17:06:56.274Z,10.60
2019-01-09T17:09:41.441Z,8.70
2019-01-09T17:12:12.950Z,7.17
2019-01-09T17:14:45.766Z,7.47
2019-01-09T17:17:16.834Z,7.10
2019-01-09T17:19:48.429Z,7.80
2019-01-09T17:22:19.753Z,7.83
2019-01-09T17:24:54.664Z,8.40
2019-01-09T17:27:25.477Z,8.90
2019-01-09T17:29:56.904Z,9.60
2019-01-09T17:32:28.033Z,9.27
2019-01-09T17:34:59.678Z,10.67
2019-01-09T17:37:31.031Z,11.43
2019-01-09T17:40:02.488Z,9.60
2019-01-09T17:42:36.900Z,9.10
2019-01-09T17:45:10.206Z,8.93
2019-01-09T17:47:41.576Z,8.77
2019-01-09T17:50:17.834Z,9.40
2019-01-09T17:52:48.944Z,9.33
2019-01-09T17:55:20.094Z,9.80
2019-01-09T17:57:52.098Z,8.80
2019-01-09T18:00:36.768Z,9.83
2019-01-09T18:03:08.184Z,9.13
2019-01-09T18:05:42.241Z,9.50
2019-01-09T18:08:14.028Z,9.10
2019-01-09T18:10:50.348Z,8.60
2019-01-09T18:13:20.150Z,8.90
2019-01-09T18:15:52.133Z,8.67
2019-01-09T18:18:28.047Z,9.00
2019-01-09T18:21:06.666Z,11.13
2019-01-09T18:23:38.031Z,9.87
2019-01-09T18:26:09.485Z,10.07
2019-01-09T18:28:40.882Z,11.87
2019-01-09T18:31:34.399Z,11.80
2019-01-09T18:34:43.787Z,8.53
2019-01-09T18:37:56.648Z,8.10
2019-01-09T18:40:40.449Z,7.87
2019-01-09T18:43:52.412Z,8.37
2019-01-09T18:46:53.114Z,6.90
2019-01-09T18:49:54.225Z,5.70
2019-01-09T18:52:54.080Z,5.27
2019-01-09T18:55:25.527Z,4.30
2019-01-09T18:57:57.087Z,5.43
2019-01-09T19:00:32.422Z,4.97
2019-01-09T19:03:03.936Z,5.50
2019-01-09T19:05:35.690Z,4.07
2019-01-09T19:08:08.667Z,4.07
2019-01-09T19:10:43.151Z,4.30
2019-01-09T19:13:14.480Z,3.80
2019-01-09T19:15:46.706Z,4.50
2019-01-09T19:18:17.645Z,4.60
2019-01-09T19:20:49.412Z,5.33
2019-01-09T19:23:20.718Z,4.20
2019-01-09T19:25:53.350Z,4.87
2019-01-09T19:28:24.458Z,4.83
2019-01-09T19:30:55.651Z,4.77
2019-01-09T19:33:27.043Z,4.23
2019-01-09T19:35:58.523Z,4.83
2019-01-09T19:38:34.508Z,5.97
2019-01-09T19:41:06.004Z,11.83
2019-01-09T19:43:37.287Z,4.20
2019-01-09T19:46:08.582Z,4.40
2019-01-09T19:48:48.637Z,4.37
2019-01-09T19:51:19.710Z,4.13
2019-01-09T19:54:04.156Z,4.73
2019-01-09T19:56:44.323Z,6.30
2019-01-09T19:59:16.081Z,6.15
2019-01-09T20:01:47.232Z,6.60
2019-01-09T20:04:18.072Z,7.23
2019-01-09T20:06:49.415Z,8.20
2019-01-09T20:09:20.529Z,9.63
2019-01-09T20:11:52.319Z,8.10
2019-01-09T20:14:23.260Z,7.30
2019-01-09T20:16:55.136Z,7.90
2019-01-09T20:19:26.202Z,7.73
2019-01-09T20:21:57.277Z,10.80
2019-01-09T20:24:28.573Z,9.97
2019-01-09T20:26:59.872Z,8.33
2019-01-09T20:29:31.045Z,9.70
2019-01-09T20:32:02.589Z,8.00
2019-01-09T20:34:33.745Z,9.10
2019-01-09T20:37:14.776Z,11.57
2019-01-09T20:39:45.951Z,8.20
2019-01-09T20:42:16.897Z,9.60
2019-01-09T20:44:52.870Z,7.20
2019-01-09T20:47:23.676Z,8.00
2019-01-09T20:49:55.151Z,7.63
2019-01-09T20:52:26.082Z,8.30
2019-01-09T20:54:57.287Z,14.23
2019-01-09T20:57:46.381Z,7.40
2019-01-09T21:00:22.939Z,6.27
2019-01-09T21:02:54.901Z,6.80
2019-01-09T21:05:29.100Z,7.50
2019-01-09T21:08:02.101Z,9.77
2019-01-09T21:10:34.619Z,6.53
2019-01-09T21:13:06.486Z,5.83
2019-01-09T21:15:38.185Z,5.47
2019-01-09T21:18:13.174Z,6.30
2019-01-09T21:20:44.090Z,7.40
2019-01-09T21:23:15.380Z,5.80
2019-01-09T21:25:46.665Z,5.97
2019-01-09T21:28:17.614Z,8.20
2019-01-09T21:30:48.875Z,6.07
2019-01-09T21:33:20.250Z,5.63
2019-01-09T21:35:52.340Z,5.30
2019-01-09T21:38:23.681Z,5.73
2019-01-09T21:41:01.871Z,5.97
2019-01-09T21:43:34.088Z,6.10
2019-01-09T21:46:08.539Z,5.80
2019-01-09T21:48:41.877Z,5.73
2019-01-09T21:51:14.869Z,4.70
2019-01-09T21:53:46.277Z,5.10
2019-01-09T21:56:17.608Z,5.40
2019-01-09T21:58:48.932Z,4.83
2019-01-09T22:01:21.651Z,4.17
2019-01-09T22:03:56.698Z,5.80
2019-01-09T22:06:27.840Z,5.08
2019-01-09T22:08:59.354Z,4.87
2019-01-09T22:11:31.326Z,5.08
2019-01-09T22:14:06.360Z,4.70
2019-01-09T22:16:37.463Z,5.33
2019-01-09T22:19:12.022Z,4.60
2019-01-09T22:21:41.745Z,4.30
2019-01-09T22:24:13.005Z,5.63
2019-01-09T22:26:47.414Z,4.70
2019-01-09T22:29:18.598Z,4.53
2019-01-09T22:31:50.080Z,4.30
2019-01-09T22:34:24.596Z,5.10
2019-01-09T22:37:06.478Z,4.50
2019-01-09T22:39:37.785Z,5.23
2019-01-09T22:42:12.003Z,4.20
2019-01-09T22:44:55.160Z,6.20
2019-01-09T22:47:48.426Z,4.63
2019-01-09T22:50:21.599Z,5.73
2019-01-09T22:52:52.984Z,5.07
2019-01-09T22:55:24.066Z,5.00
2019-01-09T22:57:55.280Z,5.70
2019-01-09T23:00:50.953Z,4.30
2019-01-09T23:03:22.020Z,4.80
2019-01-09T23:05:53.445Z,4.70
2019-01-09T23:08:27.478Z,4.97
2019-01-09T23:10:58.597Z,5.60
2019-01-09T23:13:29.858Z,5.70
2019-01-09T23:16:01.048Z,6.30
2019-01-09T23:18:32.382Z,7.40
2019-01-09T23:21:04.015Z,5.90
2019-01-09T23:23:35.084Z,6.07
2019-01-09T23:26:21.373Z,5.83
2019-01-09T23:28:46.887Z,5.57
2019-01-09T23:31:18.659Z,5.13
2019-01-09T23:33:51.279Z,7.07
2019-01-09T23:36:22.656Z,9.00
2019-01-09T23:38:54.068Z,6.10
2019-01-09T23:41:24.961Z,5.77
2019-01-09T23:43:56.457Z,6.67
2019-01-09T23:46:27.277Z,6.00
2019-01-09T23:48:58.256Z,5.60
2019-01-09T23:51:29.374Z,6.35
2019-01-09T23:54:01.680Z,5.07
2019-01-09T23:56:33.151Z,5.13
2019-01-09T23:59:04.307Z,5.50
